Terminal Aerodrome Forecast
Issued by NWS St Louis, MO

Home | Current Version | Previous Version | Graphics & Text | Print | Product List | Glossary On
Versions: 1 2 3 4 5 6 7 8 9 10 11 12 13 14 15 16 17 18 19 20 21 22 23 24 25
000
FTUS43 KLSX 150300 AAA
TAFSTL
TAF AMD
KSTL 150301Z 1503/1606 33015KT P6SM SCT035
     FM150600 32008KT P6SM SKC
     FM151700 29007KT P6SM SCT050
     FM160100 17008KT P6SM SKC=

USA.gov is the U.S. government's official web portal to all federal, state and local government web resources and services.